createdAt,value
2023-12-19T00:04:34.872Z,33.52
2023-12-19T00:09:36.910Z,33.21
2023-12-19T00:14:39.520Z,33.25
2023-12-19T00:19:42.139Z,33.42
2023-12-19T00:24:44.371Z,33.35
2023-12-19T00:29:46.437Z,33.09
2023-12-19T00:34:48.707Z,32.62
2023-12-19T00:39:50.935Z,32.85
2023-12-19T00:44:53.326Z,32.86
2023-12-19T00:49:56.230Z,33.07
2023-12-19T00:54:58.444Z,33.08
2023-12-19T01:00:01.269Z,32.76
2023-12-19T01:05:04.113Z,33.01
2023-12-19T01:10:06.734Z,32.77
2023-12-19T01:15:09.544Z,32.63
2023-12-19T01:20:11.736Z,32.85
2023-12-19T01:25:13.698Z,32.87
2023-12-19T01:30:15.963Z,33.10
2023-12-19T01:35:18.389Z,32.94
2023-12-19T01:40:20.994Z,33.13
2023-12-19T01:45:26.713Z,32.59
2023-12-19T01:50:30.617Z,33.05
2023-12-19T01:55:32.861Z,32.98
2023-12-19T02:00:37.758Z,33.21
2023-12-19T02:05:42.706Z,33.35
2023-12-19T02:10:44.981Z,33.54
2023-12-19T02:15:49.513Z,33.51
2023-12-19T02:20:51.863Z,33.69
2023-12-19T02:25:54.656Z,33.67
2023-12-19T02:30:56.834Z,33.61
2023-12-19T02:35:58.835Z,33.74
2023-12-19T02:41:00.810Z,33.65
2023-12-19T02:46:03.154Z,33.61
2023-12-19T02:51:05.367Z,33.74
2023-12-19T02:56:07.730Z,34.05
2023-12-19T03:01:10.273Z,34.32
2023-12-19T03:06:16.442Z,34.24
2023-12-19T03:11:18.924Z,34.40
2023-12-19T03:16:21.141Z,34.52
2023-12-19T03:21:23.715Z,34.40
2023-12-19T03:26:25.636Z,34.34
2023-12-19T03:31:27.826Z,34.53
2023-12-19T03:36:32.888Z,34.41
2023-12-19T03:41:34.935Z,34.20
2023-12-19T03:46:37.025Z,34.25
2023-12-19T03:51:39.155Z,34.03
2023-12-19T03:56:42.496Z,33.73
2023-12-19T04:01:46.331Z,33.58
2023-12-19T04:06:48.490Z,33.58
2023-12-19T04:11:51.076Z,33.39
2023-12-19T04:16:53.472Z,33.58
2023-12-19T04:21:58.060Z,33.35
2023-12-19T04:27:00.194Z,33.37
2023-12-19T04:32:02.254Z,33.37
2023-12-19T04:37:04.740Z,32.94
2023-12-19T04:42:10.037Z,33.24
2023-12-19T04:47:12.222Z,32.75
2023-12-19T04:52:14.333Z,31.89
2023-12-19T04:57:16.586Z,31.98
2023-12-19T05:02:18.781Z,31.90
2023-12-19T05:07:21.176Z,31.90
2023-12-19T05:12:24.662Z,31.67
2023-12-19T05:17:26.690Z,31.54
2023-12-19T05:22:30.224Z,31.58
2023-12-19T05:27:32.329Z,31.55
2023-12-19T05:32:34.431Z,31.67
2023-12-19T05:37:36.859Z,31.93
2023-12-19T05:42:39.107Z,31.95
2023-12-19T05:47:41.168Z,31.58
2023-12-19T05:52:43.525Z,31.37
2023-12-19T05:57:50.456Z,31.26
2023-12-19T06:02:55.995Z,31.23
2023-12-19T06:08:02.230Z,31.53
2023-12-19T06:13:06.456Z,31.72
2023-12-19T06:18:09.210Z,31.75
2023-12-19T06:23:11.487Z,31.38
2023-12-19T06:28:16.354Z,30.79
2023-12-19T06:33:18.690Z,31.32
2023-12-19T06:38:21.117Z,31.49
2023-12-19T06:43:23.180Z,31.48
2023-12-19T06:48:25.201Z,31.65
2023-12-19T06:53:27.203Z,31.73
2023-12-19T06:58:29.523Z,31.61
2023-12-19T07:03:31.587Z,31.60
2023-12-19T07:08:40.631Z,31.70
2023-12-19T07:13:48.818Z,31.59
2023-12-19T07:18:52.291Z,31.53
2023-12-19T07:23:55.943Z,31.25
2023-12-19T07:29:00.296Z,31.62
2023-12-19T07:34:08.374Z,31.24
2023-12-19T07:39:13.896Z,31.14
2023-12-19T07:44:17.784Z,31.18
2023-12-19T07:49:20.539Z,31.42
2023-12-19T07:54:22.860Z,31.52
2023-12-19T07:59:24.902Z,31.35
2023-12-19T08:04:27.057Z,31.68
2023-12-19T08:09:30.838Z,31.87
2023-12-19T08:14:34.337Z,31.99
2023-12-19T08:19:39.301Z,32.01
2023-12-19T08:24:41.478Z,32.14
2023-12-19T08:29:45.684Z,31.73
2023-12-19T08:34:47.818Z,32.00
2023-12-19T08:39:55.972Z,32.26
2023-12-19T08:44:58.244Z,32.26
2023-12-19T08:50:02.616Z,32.35
2023-12-19T08:55:09.523Z,32.56
2023-12-19T09:00:21.607Z,32.57
2023-12-19T09:05:23.878Z,33.09
2023-12-19T09:10:26.206Z,33.07
2023-12-19T09:15:28.370Z,33.19
2023-12-19T09:20:31.545Z,33.28
2023-12-19T09:25:33.894Z,33.22
2023-12-19T09:30:36.548Z,32.98
2023-12-19T09:35:39.013Z,33.07
2023-12-19T09:40:41.639Z,32.98
2023-12-19T09:45:45.351Z,33.23
2023-12-19T09:50:48.386Z,33.17
2023-12-19T09:55:50.755Z,33.36
2023-12-19T10:00:54.623Z,33.21
2023-12-19T10:05:59.753Z,33.16
2023-12-19T10:11:01.685Z,32.87
2023-12-19T10:16:30.324Z,32.80
2023-12-19T10:21:33.989Z,32.72
2023-12-19T10:26:36.471Z,32.43
2023-12-19T10:31:40.002Z,32.37
2023-12-19T10:36:41.997Z,31.92
2023-12-19T10:41:43.948Z,32.16
2023-12-19T10:46:47.093Z,32.37
2023-12-19T10:51:55.615Z,32.66
2023-12-19T10:57:12.816Z,32.87
2023-12-19T11:02:36.636Z,32.83
2023-12-19T11:07:42.468Z,33.14
2023-12-19T11:12:46.942Z,33.50
2023-12-19T11:17:49.309Z,33.83
2023-12-19T11:23:47.626Z,34.78
2023-12-19T11:28:49.641Z,35.56
2023-12-19T11:33:51.914Z,36.72
2023-12-19T11:39:23.187Z,37.42
2023-12-19T11:44:35.156Z,37.93
2023-12-19T11:49:39.094Z,37.96
2023-12-19T11:54:43.415Z,39.17
2023-12-19T11:59:50.946Z,39.94
2023-12-19T12:05:20.157Z,41.80
2023-12-19T12:10:24.539Z,42.87
2023-12-19T12:15:27.496Z,46.11
2023-12-19T12:20:33.721Z,47.08
2023-12-19T12:25:36.009Z,47.90
2023-12-19T12:30:40.030Z,48.36
2023-12-19T12:35:42.218Z,49.53
2023-12-19T12:41:11.423Z,50.27
2023-12-19T12:46:15.700Z,50.35
2023-12-19T12:51:18.480Z,50.50
2023-12-19T12:56:20.460Z,50.92
2023-12-19T13:01:22.521Z,50.89
2023-12-19T13:06:26.137Z,50.79
2023-12-19T13:11:28.296Z,51.73
2023-12-19T13:16:30.274Z,53.61
2023-12-19T13:21:33.628Z,55.28
2023-12-19T13:26:35.622Z,56.44
2023-12-19T13:31:39.097Z,57.00
2023-12-19T13:36:44.668Z,57.13
2023-12-19T13:41:46.713Z,58.31
2023-12-19T13:46:49.570Z,58.63
2023-12-19T13:51:51.511Z,59.18
2023-12-19T13:56:53.423Z,60.10
2023-12-19T14:01:55.620Z,60.29
2023-12-19T14:06:58.063Z,61.14
2023-12-19T14:12:00.046Z,61.58
2023-12-19T14:17:01.983Z,62.59
2023-12-19T14:27:08.709Z,63.18
2023-12-19T14:32:10.742Z,64.29
2023-12-19T14:37:13.961Z,64.62
2023-12-19T14:42:15.981Z,65.41
2023-12-19T14:47:18.012Z,64.95
2023-12-19T14:52:21.171Z,65.20
2023-12-19T14:57:26.570Z,65.41
2023-12-19T15:02:30.708Z,64.73
2023-12-19T15:07:32.713Z,65.19
2023-12-19T15:12:34.805Z,65.22
2023-12-19T15:17:37.040Z,65.55
2023-12-19T15:22:39.154Z,66.00
2023-12-19T15:27:41.277Z,66.07
2023-12-19T15:32:43.405Z,66.47
2023-12-19T15:37:45.536Z,66.33
2023-12-19T15:42:48.236Z,66.15
2023-12-19T15:47:50.253Z,66.57
2023-12-19T15:52:52.308Z,67.19
2023-12-19T15:57:55.878Z,68.17
2023-12-19T16:03:01.217Z,68.57
2023-12-19T16:08:04.444Z,68.42
2023-12-19T16:13:07.051Z,68.63
2023-12-19T16:18:09.158Z,69.32
2023-12-19T16:23:11.141Z,68.99
2023-12-19T16:28:13.121Z,69.06
2023-12-19T16:33:15.211Z,69.32
2023-12-19T16:38:17.303Z,70.74
2023-12-19T16:43:23.412Z,71.29
2023-12-19T16:48:25.499Z,71.79
2023-12-19T16:53:27.897Z,72.18
2023-12-19T16:58:39.823Z,71.83
2023-12-19T17:03:45.970Z,72.87
2023-12-19T17:08:48.916Z,73.32
2023-12-19T17:13:50.898Z,74.95
2023-12-19T17:18:52.954Z,74.95
2023-12-19T17:23:55.028Z,74.82
2023-12-19T17:28:57.249Z,74.85
2023-12-19T17:33:59.698Z,75.11
2023-12-19T17:39:02.121Z,75.52
2023-12-19T17:44:04.215Z,74.81
2023-12-19T17:49:06.314Z,75.03
2023-12-19T17:54:08.539Z,74.88
2023-12-19T17:59:11.248Z,74.88
2023-12-19T18:04:14.235Z,75.22
2023-12-19T18:09:16.321Z,75.57
2023-12-19T18:14:18.224Z,76.04
2023-12-19T18:19:20.992Z,76.25
2023-12-19T18:24:23.321Z,76.90
2023-12-19T18:29:26.033Z,77.31
2023-12-19T18:34:28.135Z,77.03
2023-12-19T18:39:32.347Z,77.33
2023-12-19T18:44:37.922Z,77.65
2023-12-19T18:49:39.973Z,78.02
2023-12-19T18:54:41.989Z,78.20
2023-12-19T18:59:44.918Z,78.29
2023-12-19T19:04:48.432Z,79.19
2023-12-19T19:09:52.510Z,78.91
2023-12-19T19:14:54.676Z,79.28
2023-12-19T19:20:02.692Z,79.60
2023-12-19T19:25:05.337Z,79.68
2023-12-19T19:30:08.482Z,79.35
2023-12-19T19:35:10.552Z,79.55
2023-12-19T19:40:12.752Z,79.66
2023-12-19T19:45:15.071Z,79.64
2023-12-19T19:50:17.904Z,80.02
2023-12-19T19:55:22.716Z,80.41
2023-12-19T20:00:26.067Z,80.06
2023-12-19T20:05:28.022Z,79.77
2023-12-19T20:10:30.387Z,79.81
2023-12-19T20:15:32.600Z,79.87
2023-12-19T20:20:34.539Z,79.85
2023-12-19T20:25:36.442Z,79.63
2023-12-19T20:30:38.612Z,79.63
2023-12-19T20:35:41.260Z,79.43
2023-12-19T20:40:43.279Z,79.38
2023-12-19T20:45:46.541Z,79.90
2023-12-19T20:50:48.813Z,79.57
2023-12-19T20:55:50.802Z,79.59
2023-12-19T21:01:05.517Z,79.66
2023-12-19T21:06:13.104Z,79.73
2023-12-19T21:11:15.064Z,79.78
2023-12-19T21:16:17.055Z,79.39
2023-12-19T21:21:19.115Z,79.46
2023-12-19T21:26:21.135Z,79.71
2023-12-19T21:31:24.218Z,80.01
2023-12-19T21:36:26.172Z,79.74
2023-12-19T21:41:28.650Z,79.82
2023-12-19T21:46:31.734Z,79.80
2023-12-19T21:51:38.151Z,79.70
2023-12-19T21:56:40.727Z,79.32
2023-12-19T22:01:46.712Z,79.39
2023-12-19T22:06:49.374Z,79.31
2023-12-19T22:11:52.903Z,79.18
2023-12-19T22:16:55.003Z,78.90
2023-12-19T22:21:58.208Z,78.82
2023-12-19T22:27:02.232Z,78.82
2023-12-19T22:32:04.612Z,78.88
2023-12-19T22:37:06.906Z,78.68
2023-12-19T22:42:09.165Z,78.70
2023-12-19T22:47:11.466Z,78.83
2023-12-19T22:52:13.436Z,78.82
2023-12-19T22:57:15.442Z,78.78
2023-12-19T23:02:17.788Z,78.74
2023-12-19T23:07:20.030Z,78.83
2023-12-19T23:12:22.123Z,78.90
2023-12-19T23:17:24.441Z,79.05
2023-12-19T23:22:27.183Z,78.65
2023-12-19T23:27:31.462Z,78.85
2023-12-19T23:32:34.810Z,78.60
2023-12-19T23:37:37.153Z,78.50
2023-12-19T23:42:39.652Z,78.33
2023-12-19T23:47:41.793Z,78.42
2023-12-19T23:53:10.529Z,78.52
2023-12-19T23:58:12.660Z,78.29
